Stations météo

réclame
Mon MeteoGroup
Wasserkuppe, Allemagne (10544): Température de l'air & dewpoint: 27.06.2020 15:00:00 - 03.07.2020 15:00:00 (CEST)Wasserkuppe, Allemagne (10544): Température de l'air 5cm & Température de l'air -5cm: 27.06.2020 15:00:00 - 03.07.2020 15:00:00 (CEST)Wasserkuppe, Allemagne (10544): Température de l'air -20cm & Température de l'air -100cm: 27.06.2020 15:00:00 - 03.07.2020 15:00:00 (CEST)Wasserkuppe, Allemagne (10544): Vitesse du vent & gusts: 27.06.2020 15:00:00 - 03.07.2020 15:00:00 (CEST)Wasserkuppe, Allemagne (10544): Direction du vent: 27.06.2020 15:00:00 - 03.07.2020 15:00:00 (CEST)Wasserkuppe, Allemagne (10544): visibility: 27.06.2020 15:00:00 - 03.07.2020 15:00:00 (CEST)Wasserkuppe, Allemagne (10544): Ensoleillement: 27.06.2020 15:00:00 - 03.07.2020 15:00:00 (CEST)Wasserkuppe, Allemagne (10544): Quantités de précipitations: 27.06.2020 15:00:00 - 03.07.2020 15:00:00 (CEST)
Date & Time tt [°C] td [°C] tt 5cm [°C] tt -5cm [°C] tt -20cm [°C] tt -100cm [°C] ff [km/h] ff [knt] fx [km/h] fx [knt] dd vv [km] sd [min] rr [mm]
03.07.2020 15:00:00 14,9 9,0 16,8 20,9 16,4 11,2 12 7 30 16 W 38 29 0,0
03.07.2020 14:00:00 15,1 9,6 19,0 20,0 16,3 11,2 18 10 27 14 WSW 33 34 0,0
03.07.2020 13:00:00 14,4 9,3 18,5 19,1 16,3 11,2 16 9 27 15 WSW 31 35 0,0
03.07.2020 12:00:00 13,4 9,3 16,1 18,3 16,3 11,2 19 11 32 17 WSW 41 30 0,0
03.07.2020 11:00:00 12,5 9,5 15,6 17,4 16,4 11,2 19 10 31 17 WSW 36 33 0,0
03.07.2020 10:00:00 12,0 9,5 13,7 16,1 16,5 11,2 14 7 29 16 W 21 40 0,0
03.07.2020 09:00:00 10,7 9,7 13,1 15,2 16,6 11,2 10 5 21 12 W 4,4 21 0,0
03.07.2020 08:00:00 9,6 9,1 10,6 14,7 16,8 11,2 14 8 23 12 WNW 1,5 10 0,0
03.07.2020 07:00:00 9,7 9,7 10,3 14,5 16,9 11,2 11 6 20 11 W 0,1 3 0,0
03.07.2020 06:00:00 9,4 9,2 9,2 14,8 17,1 11,2 14 7 26 14 WNW 9 1 0,0
03.07.2020 05:00:00 10,0 10,0 10,2 15,2 17,2 11,2 13 7 33 18 W 0,1 0 0,0
03.07.2020 04:00:00 10,3 10,3 10,4 15,5 17,4 11,2 17 9 29 15 W 0,1 0 0,0
03.07.2020 03:00:00 10,1 10,1 10,2 15,9 17,5 11,2 14 7 25 14 W 0,1 0 0,0
03.07.2020 02:00:00 10,1 10,1 10,3 16,5 17,6 11,2 14 8 26 14 W 0,2 0 0,0
03.07.2020 01:00:00 10,4 10,4 10,6 17,1 17,7 11,2 16 8 28 15 WNW 0,1 0 0,0
03.07.2020 00:00:00 10,9 10,9 11,0 17,9 17,7 11,2 21 12 38 20 NW 0,1 0 0,5
02.07.2020 23:00:00 11,4 10,9 11,2 18,8 17,7 11,2 13 7 39 21 W 10 0 4,2
02.07.2020 22:00:00 13,6 10,2 13,2 20,0 17,6 11,2 16 9 30 16 NW 38 0 0,0
02.07.2020 21:00:00 13,9 11,3 12,9 21,1 17,5 11,2 10 6 22 12 NW 44 0 0,0
02.07.2020 20:00:00 14,8 11,3 15,1 22,1 17,4 11,2 12 6 30 16 NNW 57 4 0,0
02.07.2020 19:00:00 15,7 12,0 17,3 22,9 17,2 11,1 14 8 26 14 NNW 55 8 0,0
02.07.2020 18:00:00 16,2 12,4 17,7 23,8 17,0 11,1 19 10 36 20 NW 49 8 0,0
02.07.2020 17:00:00 18,2 11,4 20,7 24,1 16,8 11,1 26 14 41 22 SW 47 36 0,0
02.07.2020 16:00:00 18,8 11,5 22,2 23,6 16,6 11,1 29 16 41 22 SSW 63 30 0,0
02.07.2020 15:00:00 17,7 10,1 19,4 22,8 16,5 11,1 23 13 42 23 SW 53 38 0,0
02.07.2020 14:00:00 19,5 11,4 24,6 21,3 16,4 11,1 24 13 35 19 SW 55 44 0,0
02.07.2020 13:00:00 16,6 11,0 18,6 20,6 16,4 11,1 16 9 32 17 SW 51 10 0,0
02.07.2020 12:00:00 16,4 11,5 19,5 19,9 16,4 11,1 22 12 33 18 SW 61 37 0,0
02.07.2020 11:00:00 16,1 12,1 20,9 18,4 16,4 11,1 19 10 29 16 SW 59 48 0,0
02.07.2020 10:00:00 14,4 11,9 16,4 17,0 16,5 11,1 18 10 28 15 WSW 32 41 0,0
02.07.2020 09:00:00 13,4 12,0 15,1 16,0 16,6 11,1 15 8 29 16 WSW 30 26 0,0
02.07.2020 08:00:00 12,2 11,9 12,7 15,7 16,7 11,1 16 8 24 13 W 7 0 0,0
02.07.2020 07:00:00 12,0 11,7 12,1 15,8 16,8 11,1 16 9 25 13 W 7 10 0,0
02.07.2020 06:00:00 11,5 10,7 11,1 16,2 16,9 11,1 14 8 26 14 W 48 6 0,0
02.07.2020 05:00:00 11,8 11,2 11,0 16,8 17,0 11,1 10 6 26 14 W 11 0 1,6
02.07.2020 04:00:00 12,5 11,7 12,0 17,3 17,0 11,1 7 4 21 11 NNW 19 0 0,0
02.07.2020 03:00:00 12,8 11,9 12,3 17,8 17,1 11,1 15 8 26 14 NNW 35 0 0,1
02.07.2020 02:00:00 14,1 12,6 13,1 18,3 17,1 11,1 10 5 31 17 NNW 15 0 0,5
02.07.2020 01:00:00 15,6 13,1 15,2 18,8 17,1 11,1 14 8 32 17 WSW 46 0 0,0
02.07.2020 00:00:00 15,8 13,1 15,5 19,4 17,0 11,1 12 6 25 13 W 57 0 0,0
01.07.2020 23:00:00 16,1 13,1 15,7 20,2 16,9 11,1 13 7 28 15 WSW 56 0 0,0
01.07.2020 22:00:00 16,2 12,8 15,2 21,3 16,7 11,1 21 12 32 17 WSW 57 0 0,0
01.07.2020 21:00:00 17,0 13,1 16,0 22,6 16,5 11,1 19 10 42 23 WSW 45 20 0,0
01.07.2020 20:00:00 18,8 13,1 19,7 23,6 16,2 11,1 27 15 44 24 WSW 59 30 0,0
01.07.2020 19:00:00 19,8 12,8 21,1 24,1 16,0 11,1 33 18 49 27 WSW 35 54 0,0
01.07.2020 18:00:00 21,8 15,0 25,8 23,8 15,7 11,1 28 15 53 28 WSW 41 37 0,0
01.07.2020 17:00:00 21,4 14,5 26,8 23,1 15,5 11,1 28 15 46 25 SW 55 32 0,0
01.07.2020 16:00:00 19,9 13,8 22,9 22,6 15,3 11,1 34 18 45 25 SW 63 22 0,0
01.07.2020 15:00:00 19,9 14,4 22,5 21,9 15,1 11,1 25 13 42 23 SW 41 24 0,0
01.07.2020 14:00:00 19,7 14,1 23,6 20,7 15,0 11,0 24 13 34 18 SW 52 27 0,0
01.07.2020 13:00:00 18,0 13,5 21,8 19,2 14,9 11,0 27 14 43 23 SW 67 36 0,0
01.07.2020 12:00:00 17,4 13,7 22,7 17,1 14,9 11,0 29 16 42 23 SSW 50 36 0,0
01.07.2020 11:00:00 15,8 12,5 18,8 15,6 15,0 11,0 31 17 49 26 SW 54 13 0,0
01.07.2020 10:00:00 14,6 12,5 16,5 14,8 15,0 11,0 26 14 43 23 SW 41 2 0,0
01.07.2020 09:00:00 13,0 11,6 14,2 14,3 15,1 11,0 30 16 43 23 SW 51 12 0,0
01.07.2020 08:00:00 13,0 11,1 15,5 13,5 15,2 11,0 25 14 37 20 SSW 50 56 0,0
01.07.2020 07:00:00 12,5 11,0 14,4 12,9 15,3 11,0 29 15 35 19 SW 55 35 0,0
01.07.2020 06:00:00 11,7 10,6 11,5 12,9 15,4 11,0 27 14 35 19 SW 44 0 0,0
01.07.2020 05:00:00 11,2 10,2 9,9 13,1 15,5 11,0 27 14 36 19 SW 43 0 0,0
01.07.2020 04:00:00 11,6 10,3 11,0 13,2 15,6 11,0 29 16 42 23 SW 49 0 0,0
01.07.2020 03:00:00 11,2 9,8 10,1 13,4 15,7 11,0 31 17 42 23 SW 50 0 0,0
01.07.2020 02:00:00 11,1 9,5 10,1 13,8 15,8 11,0 33 18 43 23 SW 56 0 0,0
01.07.2020 01:00:00 11,2 9,2 10,1 14,3 15,8 11,0 32 17 44 24 SW 47 0 0,0
01.07.2020 00:00:00 11,4 8,8 10,3 14,9 15,8 11,0 33 18 45 25 SW 55 0 0,0
30.06.2020 23:00:00 11,8 8,9 10,6 15,7 15,8 11,0 30 16 43 23 SW 59 0 0,0
30.06.2020 22:00:00 12,0 8,9 10,8 16,7 15,8 11,0 30 16 41 22 SW 48 0 0,0
30.06.2020 21:00:00 12,7 9,1 11,9 17,6 15,7 11,0 29 16 39 21 WSW 59 17 0,0
30.06.2020 20:00:00 14,2 9,6 15,4 18,1 15,6 11,0 30 16 44 24 SW 44 31 0,0
30.06.2020 19:00:00 15,2 9,3 17,2 18,2 15,6 11,0 37 20 52 28 WSW 42 43 0,0
30.06.2020 18:00:00 14,9 9,4 17,8 17,8 15,5 10,9 32 18 50 27 WSW 49 33 0,0
30.06.2020 17:00:00 14,4 9,6 17,0 17,2 15,5 10,9 33 18 51 27 WSW 46 20 0,0
30.06.2020 16:00:00 13,1 9,2 15,1 16,8 15,4 10,9 29 16 47 25 SW 41 6 0,0
30.06.2020 15:00:00 12,0 8,1 13,2 17,0 15,3 10,9 34 19 44 24 SW 53 0 0,0
30.06.2020 14:00:00 12,1 7,8 13,5 17,2 15,3 10,9 32 17 53 29 WSW 56 2 0,0
30.06.2020 13:00:00 12,7 7,0 14,7 16,7 15,3 10,9 34 18 59 32 SW 41 27 0,0
30.06.2020 12:00:00 13,2 8,1 16,5 15,8 15,4 10,9 28 15 48 26 WSW 35 25 0,0
30.06.2020 11:00:00 12,1 7,5 14,1 15,1 15,5 10,9 25 14 52 28 WSW 33 38 0,0
30.06.2020 10:00:00 12,2 6,4 15,5 13,5 15,6 10,9 35 19 52 28 WSW 45 45 0,0
30.06.2020 09:00:00 11,2 6,5 13,1 12,3 15,8 10,9 29 16 43 23 WSW 55 41 0,0
30.06.2020 08:00:00 9,6 5,9 9,8 11,7 16,0 10,9 29 15 42 23 WSW 48 12 0,0
30.06.2020 07:00:00 8,4 5,2 7,8 11,6 16,2 10,9 27 15 36 19 WSW 49 19 0,0
30.06.2020 06:00:00 8,2 4,8 7,2 11,9 16,3 10,9 20 11 38 21 W 49 13 0,0
30.06.2020 05:00:00 8,0 4,3 6,7 12,4 16,5 10,9 23 12 34 19 WSW 53 0 0,0
30.06.2020 04:00:00 8,3 4,2 7,0 13,0 16,7 10,9 20 11 42 23 W 49 0 0,0
30.06.2020 03:00:00 8,6 4,6 7,2 13,7 16,8 10,8 26 14 40 21 WSW 50 0 0,0
30.06.2020 02:00:00 9,3 4,9 7,8 14,3 16,9 10,8 22 12 34 18 WSW 48 0 0,0
30.06.2020 01:00:00 9,7 5,0 7,8 15,0 17,0 10,8 21 11 32 17 WSW 48 0 0,0
30.06.2020 00:00:00 11,1 5,6 10,3 15,7 17,0 10,8 22 12 37 20 WSW 53 0 0,0
29.06.2020 23:00:00 11,5 5,5 10,3 16,8 17,0 10,8 21 11 31 17 W 75 0 0,0
29.06.2020 22:00:00 11,7 6,7 9,7 18,0 17,0 10,8 20 11 29 15 WSW 56 9 0,0
29.06.2020 21:00:00 13,4 8,7 12,3 19,2 16,9 10,8 14 8 28 15 W 75 37 0,0
29.06.2020 20:00:00 14,3 9,6 14,8 20,1 16,7 10,8 21 11 33 18 SW 54 29 0,0
29.06.2020 19:00:00 14,9 9,2 15,4 20,7 16,6 10,8 23 12 35 19 WSW 62 40 0,0
29.06.2020 18:00:00 16,2 9,8 18,8 20,8 16,5 10,8 24 13 37 20 WSW 61 55 0,0
29.06.2020 17:00:00 14,2 9,8 16,7 21,1 16,3 10,8 21 11 41 22 WSW 35 16 0,0
29.06.2020 16:00:00 15,6 9,4 19,7 20,8 16,2 10,8 24 13 41 22 WSW 59 47 0,0
29.06.2020 15:00:00 13,5 10,1 15,8 20,1 16,2 10,8 25 14 41 22 WSW 58 40 0,0
29.06.2020 14:00:00 13,5 9,9 17,5 18,4 16,2 10,7 27 14 40 22 SW 52 60 0,0
29.06.2020 13:00:00 11,8 10,3 14,9 16,8 16,2 10,7 13 7 62 34 W 45 26 3,7
29.06.2020 12:00:00 12,8 9,3 15,2 16,4 16,3 10,7 23 12 32 17 WSW 47 36 0,0
29.06.2020 11:00:00 11,5 10,1 13,9 15,3 16,4 10,7 16 9 23 12 SW 28 2 0,0
29.06.2020 10:00:00 11,1 10,3 12,9 14,8 16,5 10,7 14 8 23 13 WSW 15 3 0,0
29.06.2020 09:00:00 10,5 10,0 12,0 14,3 16,6 10,7 13 7 21 12 WSW 2,5 0 0,0
29.06.2020 08:00:00 9,9 9,7 10,4 14,2 16,8 10,7 6 3 21 12 WSW 0,5 0 0,0
29.06.2020 07:00:00 9,8 9,8 10,1 14,2 16,9 10,7 15 8 25 13 WSW 0,1 0 0,0
29.06.2020 06:00:00 9,7 9,7 9,9 14,3 17,1 10,7 16 8 26 14 WSW 0,1 0 0,0
29.06.2020 05:00:00 9,7 9,7 9,8 14,4 17,2 10,7 21 11 28 15 WSW 0,1 0 0,0
29.06.2020 04:00:00 9,8 9,8 9,8 14,6 17,4 10,7 21 11 33 18 WSW 0,1 0 0,0
29.06.2020 03:00:00 9,8 9,8 9,8 14,8 17,5 10,7 26 14 33 18 WSW 0,4 0 0,0
29.06.2020 02:00:00 10,0 9,9 9,8 15,2 17,7 10,7 19 10 26 14 WSW 19 0 0,0
29.06.2020 01:00:00 9,9 9,2 9,1 15,7 17,8 10,7 18 10 24 13 SW 44 0 0,0
29.06.2020 00:00:00 10,3 9,2 9,7 16,3 17,9 10,6 17 9 23 12 WSW 55 0 0,0
28.06.2020 23:00:00 10,7 9,7 10,4 16,8 18,0 10,6 15 8 24 13 WSW 43 0 0,0
28.06.2020 22:00:00 10,9 9,4 10,6 17,5 18,0 10,6 16 8 27 14 WSW 50 0 0,0
28.06.2020 21:00:00 11,3 9,7 11,3 18,1 18,1 10,6 16 9 32 17 WSW 48 0 0,0
28.06.2020 20:00:00 11,7 9,5 11,9 18,9 18,1 10,6 20 11 37 20 WSW 51 0 0,0
28.06.2020 19:00:00 12,5 9,6 13,0 19,7 18,1 10,6 31 17 46 25 WSW 52 0 0,0
28.06.2020 18:00:00 14,3 10,3 14,8 20,3 18,0 10,6 21 11 39 21 W 52 0 0,0
28.06.2020 17:00:00 15,4 10,5 16,5 20,7 18,0 10,6 24 13 41 22 WSW 48 2 0,0
28.06.2020 16:00:00 16,1 10,6 17,4 21,0 17,9 10,6 22 12 45 24 W 51 22 0,0
28.06.2020 15:00:00 16,0 10,9 17,7 20,9 17,9 10,6 27 15 44 24 WSW 53 15 0,0
28.06.2020 14:00:00 16,6 11,2 17,9 20,9 17,9 10,6 25 14 50 27 WSW 56 15 0,0
28.06.2020 13:00:00 17,8 11,9 21,4 19,9 18,0 10,6 39 21 53 29 WSW 57 33 0,0
28.06.2020 12:00:00 16,8 15,1 19,6 19,1 18,1 10,5 26 14 51 27 SW 44 13 0,0
28.06.2020 11:00:00 14,9 14,0 15,4 18,7 18,1 10,5 27 15 45 24 SW 38 0 0,0
28.06.2020 10:00:00 14,9 14,5 15,5 18,4 18,3 10,5 29 15 46 25 SW 26 0 0,0
28.06.2020 09:00:00 16,3 16,0 17,9 17,8 18,4 10,5 29 15 43 23 SW 9 12 0,4
28.06.2020 08:00:00 15,1 15,1 15,0 17,6 18,6 10,5 34 19 50 27 SSW 1,3 0 2,0
28.06.2020 07:00:00 16,5 14,7 16,5 17,5 18,7 10,5 31 17 46 25 S 45 25 0,0
28.06.2020 06:00:00 15,8 13,9 14,5 17,6 18,9 10,5 32 17 44 24 SSW 41 0 0,1
28.06.2020 05:00:00 15,5 13,6 14,3 17,9 19,0 10,5 20 11 31 17 SSW 48 0 0,0
28.06.2020 04:00:00 15,4 13,0 13,6 18,4 19,2 10,5 27 15 33 18 SW 49 0 0,0
28.06.2020 03:00:00 15,5 13,2 14,0 19,0 19,3 10,5 25 14 34 18 SW 40 0 0,0
28.06.2020 02:00:00 15,6 13,3 13,6 19,6 19,4 10,5 22 12 29 16 WSW 43 0 0,0
28.06.2020 01:00:00 16,2 13,4 14,6 20,4 19,5 10,5 22 12 33 18 WSW 43 0 0,0
28.06.2020 00:00:00 16,8 13,6 15,6 21,3 19,5 10,5 25 13 37 20 WSW 49 0 0,0
27.06.2020 23:00:00 17,1 13,5 15,7 22,2 19,4 10,5 29 16 39 21 SW 50 0 0,0
27.06.2020 22:00:00 17,2 13,2 15,9 23,4 19,4 10,4 24 13 32 18 SW 50 2 0,0
27.06.2020 21:00:00 17,7 13,4 16,5 24,7 19,2 10,4 22 12 36 19 SW 46 25 0,0
27.06.2020 20:00:00 20,0 14,3 21,7 25,5 19,0 10,4 24 13 35 19 WSW 45 38 0,0
27.06.2020 19:00:00 19,1 15,1 20,0 26,2 18,8 10,4 22 12 31 17 SW 47 12 0,0
27.06.2020 18:00:00 20,0 14,7 21,2 26,8 18,6 10,4 16 8 37 20 SW 50 29 0,0
27.06.2020 17:00:00 20,9 14,5 23,3 26,5 18,4 10,4 24 13 37 20 WSW 46 30 0,0
27.06.2020 16:00:00 21,0 15,3 23,8 26,3 18,2 10,4 24 13 39 21 WSW 47 17 0,0
27.06.2020 15:00:00 21,8 16,2 25,1 26,2 18,1 10,4 26 14 41 22 WSW 46 41 0,0

tt = Température de l'air
td = dewpoint
tt 5cm = Température de l'air 5cm
tt -5cm = Température de l'air -5cm
tt -20cm = Température de l'air -20cm
tt -100cm = Température de l'air -100cm
ff = Vitesse du vent
fx = gusts
dd = Direction du vent
vv = visibility
sd = Ensoleillement
rr = Quantités de précipitations

stations d'obs. à proximité